AUA154 LOWI-LOWS

Flight info

Callsign AUA154
Flight time 0h 23m
Altitude 13000
Route RTT DCT RASTA RASTA2R
Aircraft A319/M-SDE3FGHIRWY/LB1

Departure

Time 2026-05-06 18:03
Airport Innsbruck Airport (LOWI)

Arrival

Time 2026-05-06 18:26
Airport Salzburg Airport (LOWS)
Time Latitude Longitude Altitude Speed Heading
2026-05-06 17:48 47.25787 11.34753 1895 ft 0 kts 171°
2026-05-06 17:56 47.25787 11.34754 1904 ft 0 kts 164°
2026-05-06 17:56 47.25787 11.34762 1904 ft 1 kts 97°
2026-05-06 17:56 47.25810 11.34774 1904 ft 5 kts 17°
2026-05-06 17:56 47.25842 11.34791 1903 ft 5 kts 27°
2026-05-06 17:57 47.25855 11.34837 1904 ft 6 kts 78°
2026-05-06 17:57 47.25864 11.34910 1904 ft 9 kts 81°
2026-05-06 17:57 47.25875 11.35013 1904 ft 12 kts 81°
2026-05-06 17:57 47.25888 11.35132 1904 ft 12 kts 81°
2026-05-06 17:58 47.25900 11.35245 1904 ft 7 kts 81°
2026-05-06 17:58 47.25933 11.35286 1904 ft 7 kts
2026-05-06 17:58 47.25972 11.35279 1903 ft 0 kts 350°
2026-05-06 18:00 47.25985 11.35275 1896 ft 4 kts 350°
2026-05-06 18:00 47.26042 11.35263 1904 ft 12 kts 351°
2026-05-06 18:01 47.26119 11.35311 1901 ft 14 kts 71°
2026-05-06 18:01 47.26135 11.35451 1900 ft 14 kts 81°
2026-05-06 18:01 47.26128 11.35594 1894 ft 14 kts 115°
2026-05-06 18:01 47.26129 11.35704 1896 ft 9 kts 41°
2026-05-06 18:02 47.26158 11.35660 1896 ft 9 kts 262°
2026-05-06 18:02 47.26119 11.35309 1904 ft 73 kts 261°
2026-05-06 18:02 47.26005 11.34254 1900 ft 136 kts 261°
2026-05-06 18:02 47.25845 11.32700 2248 ft 154 kts 255°
2026-05-06 18:03 47.25819 11.31127 2885 ft 155 kts 273°
2026-05-06 18:03 47.25931 11.29538 3407 ft 161 kts 275°
2026-05-06 18:03 47.26055 11.27848 3878 ft 169 kts 275°
2026-05-06 18:03 47.26084 11.26104 4415 ft 174 kts 256°
2026-05-06 18:04 47.25491 11.24583 4960 ft 173 kts 218°
2026-05-06 18:04 47.24398 11.23981 5569 ft 171 kts 175°
2026-05-06 18:04 47.23392 11.24813 6086 ft 175 kts 124°
2026-05-06 18:04 47.23162 11.26571 6676 ft 183 kts 88°
2026-05-06 18:05 47.23322 11.28427 7326 ft 181 kts 86°
2026-05-06 18:05 47.23617 11.30248 7891 ft 186 kts 77°
2026-05-06 18:05 47.24014 11.32067 8494 ft 189 kts 76°
2026-05-06 18:05 47.24434 11.33921 9029 ft 194 kts 75°
2026-05-06 18:06 47.24869 11.35828 9542 ft 199 kts 75°
2026-05-06 18:06 47.25308 11.37784 10054 ft 205 kts 75°
2026-05-06 18:06 47.25768 11.39883 10275 ft 227 kts 75°
2026-05-06 18:06 47.26276 11.42211 10478 ft 251 kts 75°
2026-05-06 18:07 47.26833 11.44788 10790 ft 276 kts 75°
2026-05-06 18:07 47.27439 11.47599 11171 ft 300 kts 75°
2026-05-06 18:07 47.28097 11.50648 11521 ft 325 kts 74°
2026-05-06 18:07 47.28805 11.53932 11831 ft 349 kts 74°
2026-05-06 18:08 47.29567 11.57454 12080 ft 372 kts 74°
2026-05-06 18:08 47.30372 11.61186 12458 ft 389 kts 74°
2026-05-06 18:08 47.31300 11.64973 12752 ft 396 kts 70°
2026-05-06 18:08 47.31962 11.68955 12800 ft 411 kts 88°
2026-05-06 18:09 47.32168 11.73192 12804 ft 425 kts 90°
2026-05-06 18:09 47.32329 11.77615 12804 ft 428 kts 90°
2026-05-06 18:09 47.32485 11.82005 12798 ft 428 kts 90°
2026-05-06 18:09 47.32659 11.86399 12796 ft 430 kts 90°
2026-05-06 18:10 47.32855 11.90730 12795 ft 430 kts 89°
2026-05-06 18:10 47.33073 11.95114 12795 ft 429 kts 89°
2026-05-06 18:10 47.33298 11.99498 12794 ft 429 kts 89°
2026-05-06 18:10 47.33523 12.03888 12795 ft 430 kts 89°
2026-05-06 18:11 47.33745 12.08280 12790 ft 430 kts 89°
2026-05-06 18:11 47.33964 12.12672 12791 ft 429 kts 89°
2026-05-06 18:11 47.34177 12.17045 12790 ft 428 kts 89°
2026-05-06 18:11 47.34384 12.21430 12783 ft 427 kts 90°
2026-05-06 18:12 47.34583 12.25797 12786 ft 428 kts 89°
2026-05-06 18:12 47.34782 12.30185 12792 ft 429 kts 89°
2026-05-06 18:12 47.34983 12.34574 12790 ft 430 kts 89°
2026-05-06 18:12 47.35184 12.38972 12784 ft 430 kts 89°
2026-05-06 18:13 47.35385 12.43371 12780 ft 430 kts 89°
2026-05-06 18:13 47.35584 12.47773 12778 ft 432 kts 89°
2026-05-06 18:13 47.35783 12.52180 12786 ft 430 kts 89°
2026-05-06 18:13 47.35982 12.56591 12788 ft 431 kts 89°
2026-05-06 18:14 47.36177 12.60994 12783 ft 431 kts 89°
2026-05-06 18:14 47.36370 12.65407 12791 ft 431 kts 89°
2026-05-06 18:14 47.36559 12.69828 12769 ft 431 kts 89°
2026-05-06 18:14 47.36748 12.74217 12505 ft 424 kts 89°
2026-05-06 18:15 47.36931 12.78478 12254 ft 409 kts 89°
2026-05-06 18:15 47.37105 12.82578 11997 ft 393 kts 89°
2026-05-06 18:15 47.37270 12.86525 11745 ft 379 kts 89°
2026-05-06 18:15 47.37428 12.90332 11518 ft 364 kts 89°
2026-05-06 18:16 47.37577 12.93985 11451 ft 347 kts 89°
2026-05-06 18:16 47.37718 12.97436 11470 ft 329 kts 89°
2026-05-06 18:16 47.37851 13.00725 11470 ft 314 kts 89°
2026-05-06 18:16 47.37976 13.03863 11469 ft 300 kts 89°
2026-05-06 18:17 47.38096 13.06866 11477 ft 286 kts 89°
2026-05-06 18:17 47.38389 13.09688 11481 ft 273 kts 75°
2026-05-06 18:17 47.39172 13.12155 11463 ft 260 kts 56°
2026-05-06 18:17 47.40330 13.14106 11463 ft 248 kts 39°
2026-05-06 18:18 47.41754 13.15514 11149 ft 250 kts 23°
2026-05-06 18:18 47.43431 13.16324 10467 ft 257 kts
2026-05-06 18:18 47.45221 13.16573 10065 ft 256 kts 356°
2026-05-06 18:18 47.46959 13.16495 9904 ft 247 kts 355°
2026-05-06 18:19 47.48667 13.16437 9477 ft 249 kts 355°
2026-05-06 18:19 47.50429 13.16387 8818 ft 257 kts 355°
2026-05-06 18:19 47.52210 13.16498 8368 ft 256 kts
2026-05-06 18:19 47.53945 13.17005 7937 ft 252 kts
2026-05-06 18:20 47.55670 13.16978 7531 ft 246 kts 351°
2026-05-06 18:20 47.57361 13.16650 7137 ft 244 kts 351°
2026-05-06 18:20 47.59037 13.16336 6754 ft 240 kts 351°
2026-05-06 18:20 47.60655 13.16028 6377 ft 228 kts 350°
2026-05-06 18:21 47.62160 13.15648 6050 ft 213 kts 349°
2026-05-06 18:21 47.63571 13.15248 5707 ft 200 kts 348°
2026-05-06 18:21 47.64455 13.14989 5508 ft 193 kts 347°
2026-05-06 18:21 47.66119 13.14152 5099 ft 187 kts 339°
2026-05-06 18:22 47.66922 13.13716 4899 ft 185 kts 339°
2026-05-06 18:22 47.68082 13.13096 4603 ft 170 kts 339°
2026-05-06 18:22 47.69154 13.12527 4328 ft 158 kts 338°
2026-05-06 18:22 47.70146 13.12003 4117 ft 146 kts 335°
2026-05-06 18:23 47.71061 13.11482 3870 ft 136 kts 328°
2026-05-06 18:23 47.71846 13.10759 3684 ft 131 kts 317°
2026-05-06 18:23 47.72495 13.09849 3479 ft 127 kts 306°
2026-05-06 18:23 47.73001 13.08787 3276 ft 125 kts 296°
2026-05-06 18:24 47.73405 13.07633 3072 ft 126 kts 294°
2026-05-06 18:24 47.73812 13.06478 2869 ft 126 kts 294°
2026-05-06 18:24 47.74231 13.05306 2662 ft 131 kts 297°
2026-05-06 18:24 47.74746 13.04193 2451 ft 130 kts 303°
2026-05-06 18:25 47.75323 13.03167 2215 ft 128 kts 317°
2026-05-06 18:25 47.76065 13.02462 2001 ft 127 kts 333°
2026-05-06 18:25 47.76867 13.01960 1826 ft 121 kts 335°
2026-05-06 18:25 47.77634 13.01472 1633 ft 126 kts 333°
2026-05-06 18:26 47.78439 13.00955 1461 ft 125 kts 337°
2026-05-06 18:26 47.79145 13.00511 1419 ft 78 kts 337°
2026-05-06 18:26 47.79381 13.00361 1423 ft 10 kts 336°
2026-05-06 18:26 47.79426 13.00306 1423 ft 8 kts 285°
2026-05-06 18:27 47.79399 13.00215 1421 ft 11 kts 247°
2026-05-06 18:27 47.79389 13.00180 1421 ft 3 kts 246°
2026-05-06 18:27 47.79388 13.00177 1421 ft 0 kts 246°
2026-05-06 18:28 47.79387 13.00174 1421 ft 1 kts 246°
2026-05-06 18:28 47.79378 13.00142 1420 ft 5 kts 248°
2026-05-06 18:28 47.79358 13.00074 1420 ft 9 kts 246°
2026-05-06 18:29 47.79339 13.00004 1420 ft 7 kts 248°
2026-05-06 18:29 47.79309 12.99955 1420 ft 6 kts 207°
2026-05-06 18:29 47.79272 12.99955 1420 ft 5 kts 163°
2026-05-06 18:29 47.79245 12.99973 1420 ft 4 kts 155°
2026-05-06 18:30 47.79231 12.99982 1420 ft 2 kts 157°
2026-05-06 18:30 47.79205 12.99998 1420 ft 6 kts 158°
2026-05-06 18:30 47.79169 13.00019 1420 ft 5 kts 157°
2026-05-06 18:30 47.79140 13.00038 1420 ft 5 kts 155°
2026-05-06 18:31 47.79098 13.00066 1420 ft 9 kts 155°
2026-05-06 18:31 47.79080 13.00106 1420 ft 3 kts 101°
2026-05-06 18:31 47.79077 13.00128 1420 ft 1 kts 101°
2026-05-06 18:31 47.79075 13.00141 1420 ft 2 kts 101°
2026-05-06 18:32 47.79073 13.00160 1420 ft 1 kts 102°
2026-05-06 18:32 47.79071 13.00169 1420 ft 1 kts 102°
2026-05-06 18:32 47.79070 13.00180 1420 ft 1 kts 102°